Atoka, New Mexico
Current Conditions -  °F | °C
As of 9:53 PM on Saturday 22 Nov 2014 (Local Time) from KCNM Reporting Station
Clear Clear  
Wind Chill: 59°   Ceiling: Unl
Heat Index: 59°   Visibility: 10mi
Dew Point: 23°   Wind: 20mph
Humidity: 25%   Direction: 250°WSW
Pressure: 29.78"   Gusts: NA
Location:  32.7449°N, 104.256°W
Report Text: KCNM 230453Z AUTO 25017KT 10SM CLR 15/M05 A2978 RMK AO2 SLP049 T01501050
Loading
Personal Weather Stations






























Interactive Weather Map New forecast layout! Learn more

10-Day Weather Forecast

Advertisements
Track Severe Weather on mobile